sensor_id;sensor_type;location;lat;lon;timestamp;temperature;humidity
40996;DHT22;26723;57.478;12.066;2024-01-16T00:01:59;-10.70;99.90
40996;DHT22;26723;57.478;12.066;2024-01-16T00:05:08;-10.70;99.90
40996;DHT22;26723;57.478;12.066;2024-01-16T00:08:17;-10.80;99.90
40996;DHT22;26723;57.478;12.066;2024-01-16T00:11:26;-10.90;99.90
40996;DHT22;26723;57.478;12.066;2024-01-16T00:14:35;-10.90;99.90
40996;DHT22;26723;57.478;12.066;2024-01-16T00:17:46;-10.90;99.90
40996;DHT22;26723;57.478;12.066;2024-01-16T00:20:54;-10.90;99.90
40996;DHT22;26723;57.478;12.066;2024-01-16T00:24:03;-11.00;99.90
40996;DHT22;26723;57.478;12.066;2024-01-16T00:27:12;-11.00;99.90
40996;DHT22;26723;57.478;12.066;2024-01-16T00:30:20;-11.10;99.90
40996;DHT22;26723;57.478;12.066;2024-01-16T00:33:30;-11.00;99.90
40996;DHT22;26723;57.478;12.066;2024-01-16T00:36:39;-11.00;99.90
40996;DHT22;26723;57.478;12.066;2024-01-16T00:39:48;-11.10;99.90
40996;DHT22;26723;57.478;12.066;2024-01-16T00:42:56;-10.90;99.90
40996;DHT22;26723;57.478;12.066;2024-01-16T00:46:05;-11.00;99.90
40996;DHT22;26723;57.478;12.066;2024-01-16T00:49:15;-11.10;99.90
40996;DHT22;26723;57.478;12.066;2024-01-16T00:52:28;-11.30;99.90
40996;DHT22;26723;57.478;12.066;2024-01-16T00:55:39;-11.40;99.90
40996;DHT22;26723;57.478;12.066;2024-01-16T00:58:48;-11.30;99.90
40996;DHT22;26723;57.478;12.066;2024-01-16T01:01:56;-11.30;99.90
40996;DHT22;26723;57.478;12.066;2024-01-16T01:05:07;-11.40;99.90
40996;DHT22;26723;57.478;12.066;2024-01-16T01:08:16;-11.60;99.90
40996;DHT22;26723;57.478;12.066;2024-01-16T01:11:25;-11.60;99.90
40996;DHT22;26723;57.478;12.066;2024-01-16T01:14:34;-11.50;99.90
40996;DHT22;26723;57.478;12.066;2024-01-16T01:17:42;-11.60;99.90
40996;DHT22;26723;57.478;12.066;2024-01-16T01:20:53;-11.60;99.90
40996;DHT22;26723;57.478;12.066;2024-01-16T01:24:01;-11.50;99.90
40996;DHT22;26723;57.478;12.066;2024-01-16T01:27:10;-11.60;99.90
40996;DHT22;26723;57.478;12.066;2024-01-16T01:30:19;-11.60;99.90
40996;DHT22;26723;57.478;12.066;2024-01-16T01:33:27;-11.70;99.90
40996;DHT22;26723;57.478;12.066;2024-01-16T01:36:37;-11.70;99.90
40996;DHT22;26723;57.478;12.066;2024-01-16T01:39:46;-11.80;99.90
40996;DHT22;26723;57.478;12.066;2024-01-16T01:42:54;-11.80;99.90
40996;DHT22;26723;57.478;12.066;2024-01-16T01:46:11;-11.90;99.90
40996;DHT22;26723;57.478;12.066;2024-01-16T01:49:22;-11.90;99.90
40996;DHT22;26723;57.478;12.066;2024-01-16T01:52:32;-11.90;99.90
40996;DHT22;26723;57.478;12.066;2024-01-16T01:55:41;-12.00;99.90
40996;DHT22;26723;57.478;12.066;2024-01-16T01:58:53;-12.10;99.90
40996;DHT22;26723;57.478;12.066;2024-01-16T02:02:03;-12.00;99.90
40996;DHT22;26723;57.478;12.066;2024-01-16T02:05:12;-12.10;99.90
40996;DHT22;26723;57.478;12.066;2024-01-16T02:08:25;-12.30;99.90
40996;DHT22;26723;57.478;12.066;2024-01-16T02:11:33;-12.20;99.90
40996;DHT22;26723;57.478;12.066;2024-01-16T02:14:42;-12.00;99.90
40996;DHT22;26723;57.478;12.066;2024-01-16T02:17:51;-12.00;99.90
40996;DHT22;26723;57.478;12.066;2024-01-16T02:21:00;-12.00;99.90
40996;DHT22;26723;57.478;12.066;2024-01-16T02:24:13;-12.20;99.90
40996;DHT22;26723;57.478;12.066;2024-01-16T02:27:22;-12.30;99.90
40996;DHT22;26723;57.478;12.066;2024-01-16T02:30:30;-12.30;99.90
40996;DHT22;26723;57.478;12.066;2024-01-16T02:33:39;-12.30;99.90
40996;DHT22;26723;57.478;12.066;2024-01-16T02:36:48;-12.30;99.90
40996;DHT22;26723;57.478;12.066;2024-01-16T02:39:58;-12.30;99.90
40996;DHT22;26723;57.478;12.066;2024-01-16T02:43:07;-12.30;99.90
40996;DHT22;26723;57.478;12.066;2024-01-16T02:46:16;-12.10;99.90
40996;DHT22;26723;57.478;12.066;2024-01-16T02:49:24;-12.10;99.90
40996;DHT22;26723;57.478;12.066;2024-01-16T02:52:33;-12.10;99.90
40996;DHT22;26723;57.478;12.066;2024-01-16T02:55:43;-12.30;99.90
40996;DHT22;26723;57.478;12.066;2024-01-16T02:58:52;-12.40;99.90
40996;DHT22;26723;57.478;12.066;2024-01-16T03:02:01;-12.40;99.90
40996;DHT22;26723;57.478;12.066;2024-01-16T03:05:10;-12.50;99.90
40996;DHT22;26723;57.478;12.066;2024-01-16T03:08:19;-12.70;99.90
40996;DHT22;26723;57.478;12.066;2024-01-16T03:11:32;-12.70;99.90
40996;DHT22;26723;57.478;12.066;2024-01-16T03:14:41;-12.50;99.90
40996;DHT22;26723;57.478;12.066;2024-01-16T03:17:49;-12.30;99.90
40996;DHT22;26723;57.478;12.066;2024-01-16T03:20:59;-12.30;99.90
40996;DHT22;26723;57.478;12.066;2024-01-16T03:24:07;-12.40;99.90
40996;DHT22;26723;57.478;12.066;2024-01-16T03:27:19;-12.40;99.90
40996;DHT22;26723;57.478;12.066;2024-01-16T03:30:27;-12.40;99.90
40996;DHT22;26723;57.478;12.066;2024-01-16T03:33:36;-12.30;99.90
40996;DHT22;26723;57.478;12.066;2024-01-16T03:36:50;-12.40;99.90
40996;DHT22;26723;57.478;12.066;2024-01-16T03:39:58;-12.40;99.90
40996;DHT22;26723;57.478;12.066;2024-01-16T03:43:08;-12.40;99.90
40996;DHT22;26723;57.478;12.066;2024-01-16T03:46:17;-12.40;99.90
40996;DHT22;26723;57.478;12.066;2024-01-16T03:49:25;-12.40;99.90
40996;DHT22;26723;57.478;12.066;2024-01-16T03:52:34;-12.50;99.90
40996;DHT22;26723;57.478;12.066;2024-01-16T03:55:42;-12.60;99.90
40996;DHT22;26723;57.478;12.066;2024-01-16T03:58:53;-12.70;99.90
40996;DHT22;26723;57.478;12.066;2024-01-16T04:02:02;-12.80;99.90
40996;DHT22;26723;57.478;12.066;2024-01-16T04:05:10;-12.80;99.90
40996;DHT22;26723;57.478;12.066;2024-01-16T04:08:19;-12.90;99.90
40996;DHT22;26723;57.478;12.066;2024-01-16T04:11:28;-13.00;99.90
40996;DHT22;26723;57.478;12.066;2024-01-16T04:14:38;-13.00;99.90
40996;DHT22;26723;57.478;12.066;2024-01-16T04:17:46;-13.00;99.90
40996;DHT22;26723;57.478;12.066;2024-01-16T04:20:55;-12.90;99.90
40996;DHT22;26723;57.478;12.066;2024-01-16T04:24:04;-12.80;99.90
40996;DHT22;26723;57.478;12.066;2024-01-16T04:27:13;-12.80;99.90
40996;DHT22;26723;57.478;12.066;2024-01-16T04:30:23;-13.00;99.90
40996;DHT22;26723;57.478;12.066;2024-01-16T04:33:32;-13.10;99.90
40996;DHT22;26723;57.478;12.066;2024-01-16T04:36:40;-13.10;99.90
40996;DHT22;26723;57.478;12.066;2024-01-16T04:39:49;-13.30;99.90
40996;DHT22;26723;57.478;12.066;2024-01-16T04:42:58;-13.30;99.90
40996;DHT22;26723;57.478;12.066;2024-01-16T04:46:08;-13.40;99.90
40996;DHT22;26723;57.478;12.066;2024-01-16T04:49:16;-13.40;99.90
40996;DHT22;26723;57.478;12.066;2024-01-16T04:52:25;-13.50;99.90
40996;DHT22;26723;57.478;12.066;2024-01-16T04:55:34;-13.50;99.90
40996;DHT22;26723;57.478;12.066;2024-01-16T04:58:43;-13.50;99.90
40996;DHT22;26723;57.478;12.066;2024-01-16T05:01:53;-13.20;99.90
40996;DHT22;26723;57.478;12.066;2024-01-16T05:05:02;-13.00;99.90
40996;DHT22;26723;57.478;12.066;2024-01-16T05:08:10;-13.10;99.90
40996;DHT22;26723;57.478;12.066;2024-01-16T05:11:19;-13.20;99.90
40996;DHT22;26723;57.478;12.066;2024-01-16T05:14:28;-13.20;99.90
40996;DHT22;26723;57.478;12.066;2024-01-16T05:17:38;-13.10;99.90
40996;DHT22;26723;57.478;12.066;2024-01-16T05:20:46;-13.00;99.90
40996;DHT22;26723;57.478;12.066;2024-01-16T05:23:55;-13.10;99.90
40996;DHT22;26723;57.478;12.066;2024-01-16T05:27:04;-13.30;99.90
40996;DHT22;26723;57.478;12.066;2024-01-16T05:30:14;-13.40;99.90
40996;DHT22;26723;57.478;12.066;2024-01-16T05:33:25;-13.30;99.90
40996;DHT22;26723;57.478;12.066;2024-01-16T05:36:34;-13.40;99.90
40996;DHT22;26723;57.478;12.066;2024-01-16T05:39:42;-13.50;99.90
40996;DHT22;26723;57.478;12.066;2024-01-16T05:42:51;-13.50;99.90
40996;DHT22;26723;57.478;12.066;2024-01-16T05:46:00;-13.50;99.90
40996;DHT22;26723;57.478;12.066;2024-01-16T05:49:10;-13.50;99.90
40996;DHT22;26723;57.478;12.066;2024-01-16T05:52:19;-13.50;99.90
40996;DHT22;26723;57.478;12.066;2024-01-16T05:55:27;-13.60;99.90
40996;DHT22;26723;57.478;12.066;2024-01-16T05:58:36;-13.60;99.90
40996;DHT22;26723;57.478;12.066;2024-01-16T06:01:46;-13.50;99.90
40996;DHT22;26723;57.478;12.066;2024-01-16T06:04:56;-13.50;99.90
40996;DHT22;26723;57.478;12.066;2024-01-16T06:08:05;-13.50;99.90
40996;DHT22;26723;57.478;12.066;2024-01-16T06:11:15;-13.50;99.90
40996;DHT22;26723;57.478;12.066;2024-01-16T06:14:25;-13.60;99.90
40996;DHT22;26723;57.478;12.066;2024-01-16T06:17:33;-13.40;99.90
40996;DHT22;26723;57.478;12.066;2024-01-16T06:20:43;-13.70;99.90
40996;DHT22;26723;57.478;12.066;2024-01-16T06:23:52;-13.60;99.90
40996;DHT22;26723;57.478;12.066;2024-01-16T06:27:01;-13.70;99.90
40996;DHT22;26723;57.478;12.066;2024-01-16T06:30:11;-13.80;99.90
40996;DHT22;26723;57.478;12.066;2024-01-16T06:33:20;-13.70;99.90
40996;DHT22;26723;57.478;12.066;2024-01-16T06:36:30;-13.60;99.90
40996;DHT22;26723;57.478;12.066;2024-01-16T06:39:39;-13.60;99.90
40996;DHT22;26723;57.478;12.066;2024-01-16T06:42:47;-13.70;99.90
40996;DHT22;26723;57.478;12.066;2024-01-16T06:45:56;-13.80;99.90
40996;DHT22;26723;57.478;12.066;2024-01-16T06:49:05;-13.80;99.90
40996;DHT22;26723;57.478;12.066;2024-01-16T06:52:16;-13.60;99.90
40996;DHT22;26723;57.478;12.066;2024-01-16T06:55:24;-13.40;99.90
40996;DHT22;26723;57.478;12.066;2024-01-16T06:58:33;-13.60;99.90
40996;DHT22;26723;57.478;12.066;2024-01-16T07:01:42;-13.70;99.90
40996;DHT22;26723;57.478;12.066;2024-01-16T07:04:51;-13.80;99.90
40996;DHT22;26723;57.478;12.066;2024-01-16T07:08:01;-13.90;99.90
40996;DHT22;26723;57.478;12.066;2024-01-16T07:11:10;-13.80;99.90
40996;DHT22;26723;57.478;12.066;2024-01-16T07:14:20;-13.80;99.90
40996;DHT22;26723;57.478;12.066;2024-01-16T07:17:29;-13.70;99.90
40996;DHT22;26723;57.478;12.066;2024-01-16T07:20:38;-13.60;99.90
40996;DHT22;26723;57.478;12.066;2024-01-16T07:23:48;-13.80;99.90
40996;DHT22;26723;57.478;12.066;2024-01-16T07:26:57;-13.70;99.90
40996;DHT22;26723;57.478;12.066;2024-01-16T07:30:06;-13.80;99.90
40996;DHT22;26723;57.478;12.066;2024-01-16T07:33:15;-13.90;99.90
40996;DHT22;26723;57.478;12.066;2024-01-16T07:36:24;-14.00;99.90
40996;DHT22;26723;57.478;12.066;2024-01-16T07:39:34;-14.00;99.90
40996;DHT22;26723;57.478;12.066;2024-01-16T07:42:42;-13.80;99.90
40996;DHT22;26723;57.478;12.066;2024-01-16T07:45:51;-13.80;99.90
40996;DHT22;26723;57.478;12.066;2024-01-16T07:49:00;-13.80;99.90
40996;DHT22;26723;57.478;12.066;2024-01-16T07:52:09;-13.60;99.90
40996;DHT22;26723;57.478;12.066;2024-01-16T07:55:20;-13.60;99.90
40996;DHT22;26723;57.478;12.066;2024-01-16T07:58:31;-13.40;99.90
40996;DHT22;26723;57.478;12.066;2024-01-16T08:01:39;-13.20;99.90
40996;DHT22;26723;57.478;12.066;2024-01-16T08:04:48;-13.20;99.90
40996;DHT22;26723;57.478;12.066;2024-01-16T08:07:57;-13.10;99.90
40996;DHT22;26723;57.478;12.066;2024-01-16T08:11:07;-13.00;99.90
40996;DHT22;26723;57.478;12.066;2024-01-16T08:14:15;-12.90;99.90
40996;DHT22;26723;57.478;12.066;2024-01-16T08:17:24;-13.00;99.90
40996;DHT22;26723;57.478;12.066;2024-01-16T08:20:33;-12.90;99.90
40996;DHT22;26723;57.478;12.066;2024-01-16T08:23:42;-12.80;99.90
40996;DHT22;26723;57.478;12.066;2024-01-16T08:26:52;-12.40;99.90
40996;DHT22;26723;57.478;12.066;2024-01-16T08:30:00;-12.10;99.90
40996;DHT22;26723;57.478;12.066;2024-01-16T08:33:09;-12.00;99.90
40996;DHT22;26723;57.478;12.066;2024-01-16T08:36:18;-12.00;99.90
40996;DHT22;26723;57.478;12.066;2024-01-16T08:39:26;-11.90;99.90
40996;DHT22;26723;57.478;12.066;2024-01-16T08:42:37;-11.90;99.90
40996;DHT22;26723;57.478;12.066;2024-01-16T08:45:45;-11.90;99.90
40996;DHT22;26723;57.478;12.066;2024-01-16T08:48:55;-11.90;99.90
40996;DHT22;26723;57.478;12.066;2024-01-16T08:52:04;-11.50;99.90
40996;DHT22;26723;57.478;12.066;2024-01-16T08:55:13;-11.30;99.90
40996;DHT22;26723;57.478;12.066;2024-01-16T08:58:23;-11.10;99.90
40996;DHT22;26723;57.478;12.066;2024-01-16T09:01:32;-10.20;99.90
40996;DHT22;26723;57.478;12.066;2024-01-16T09:04:40;-8.20;99.90
40996;DHT22;26723;57.478;12.066;2024-01-16T09:07:49;-5.70;99.90
40996;DHT22;26723;57.478;12.066;2024-01-16T09:10:57;-3.10;99.90
40996;DHT22;26723;57.478;12.066;2024-01-16T09:14:07;-1.40;99.90
40996;DHT22;26723;57.478;12.066;2024-01-16T09:17:16;0.10;99.90
40996;DHT22;26723;57.478;12.066;2024-01-16T09:20:25;0.80;99.90
40996;DHT22;26723;57.478;12.066;2024-01-16T09:23:33;0.50;99.90
40996;DHT22;26723;57.478;12.066;2024-01-16T09:26:42;1.00;99.90
40996;DHT22;26723;57.478;12.066;2024-01-16T09:29:52;1.60;99.90
40996;DHT22;26723;57.478;12.066;2024-01-16T09:33:01;1.70;99.90
40996;DHT22;26723;57.478;12.066;2024-01-16T09:36:11;1.60;99.90
40996;DHT22;26723;57.478;12.066;2024-01-16T09:39:20;-0.10;99.90
40996;DHT22;26723;57.478;12.066;2024-01-16T09:42:28;0.50;99.90
40996;DHT22;26723;57.478;12.066;2024-01-16T09:45:39;-0.70;99.90
40996;DHT22;26723;57.478;12.066;2024-01-16T09:48:48;-2.70;99.90
40996;DHT22;26723;57.478;12.066;2024-01-16T09:51:58;-5.40;99.90
40996;DHT22;26723;57.478;12.066;2024-01-16T09:55:09;-6.70;99.90
40996;DHT22;26723;57.478;12.066;2024-01-16T09:58:19;-7.30;99.90
40996;DHT22;26723;57.478;12.066;2024-01-16T10:01:33;-7.60;99.90
40996;DHT22;26723;57.478;12.066;2024-01-16T10:04:42;-7.80;99.90
40996;DHT22;26723;57.478;12.066;2024-01-16T10:07:52;-7.90;99.90
40996;DHT22;26723;57.478;12.066;2024-01-16T10:11:00;-8.10;99.90
40996;DHT22;26723;57.478;12.066;2024-01-16T10:14:09;-8.10;99.90
40996;DHT22;26723;57.478;12.066;2024-01-16T10:17:20;-8.10;99.90
40996;DHT22;26723;57.478;12.066;2024-01-16T10:20:32;-7.80;99.90
40996;DHT22;26723;57.478;12.066;2024-01-16T10:23:41;-7.80;99.90
40996;DHT22;26723;57.478;12.066;2024-01-16T10:26:58;-7.80;99.90
40996;DHT22;26723;57.478;12.066;2024-01-16T10:30:08;-7.80;99.90
40996;DHT22;26723;57.478;12.066;2024-01-16T10:33:19;-7.80;99.90
40996;DHT22;26723;57.478;12.066;2024-01-16T10:36:27;-7.80;99.90
40996;DHT22;26723;57.478;12.066;2024-01-16T10:39:36;-7.90;99.90
40996;DHT22;26723;57.478;12.066;2024-01-16T10:42:57;-7.80;99.90
40996;DHT22;26723;57.478;12.066;2024-01-16T10:46:10;-7.80;99.90
40996;DHT22;26723;57.478;12.066;2024-01-16T10:49:21;-7.80;99.90
40996;DHT22;26723;57.478;12.066;2024-01-16T10:52:35;-7.70;99.90
40996;DHT22;26723;57.478;12.066;2024-01-16T10:55:50;-7.60;99.90
40996;DHT22;26723;57.478;12.066;2024-01-16T10:59:09;-7.70;99.90
40996;DHT22;26723;57.478;12.066;2024-01-16T11:02:21;-7.70;99.90
40996;DHT22;26723;57.478;12.066;2024-01-16T11:05:34;-7.60;99.90
40996;DHT22;26723;57.478;12.066;2024-01-16T11:08:46;-7.50;99.90
40996;DHT22;26723;57.478;12.066;2024-01-16T11:11:55;-7.30;99.90
40996;DHT22;26723;57.478;12.066;2024-01-16T11:15:07;-7.20;99.90
40996;DHT22;26723;57.478;12.066;2024-01-16T11:18:15;-7.10;99.90
40996;DHT22;26723;57.478;12.066;2024-01-16T11:21:26;-7.00;99.90
40996;DHT22;26723;57.478;12.066;2024-01-16T11:24:35;-6.90;99.90
40996;DHT22;26723;57.478;12.066;2024-01-16T11:27:46;-6.80;99.90
40996;DHT22;26723;57.478;12.066;2024-01-16T11:30:58;-6.80;99.90
40996;DHT22;26723;57.478;12.066;2024-01-16T11:34:53;-6.80;99.90
40996;DHT22;26723;57.478;12.066;2024-01-16T11:38:08;-6.70;99.90
40996;DHT22;26723;57.478;12.066;2024-01-16T11:41:47;-6.50;99.90
40996;DHT22;26723;57.478;12.066;2024-01-16T11:44:56;-6.40;99.90
40996;DHT22;26723;57.478;12.066;2024-01-16T11:48:11;-6.20;99.90
40996;DHT22;26723;57.478;12.066;2024-01-16T11:51:24;-6.10;99.90
40996;DHT22;26723;57.478;12.066;2024-01-16T11:54:34;-5.90;99.90
40996;DHT22;26723;57.478;12.066;2024-01-16T11:57:58;-5.90;99.90
40996;DHT22;26723;57.478;12.066;2024-01-16T12:01:10;-5.80;99.90
40996;DHT22;26723;57.478;12.066;2024-01-16T12:04:20;-5.90;99.90
40996;DHT22;26723;57.478;12.066;2024-01-16T12:07:29;-5.80;99.90
40996;DHT22;26723;57.478;12.066;2024-01-16T12:10:47;-5.80;99.90
40996;DHT22;26723;57.478;12.066;2024-01-16T12:14:01;-5.60;99.90
40996;DHT22;26723;57.478;12.066;2024-01-16T12:17:11;-5.50;99.90
40996;DHT22;26723;57.478;12.066;2024-01-16T12:20:22;-5.60;99.90
40996;DHT22;26723;57.478;12.066;2024-01-16T12:23:31;-5.40;99.90
40996;DHT22;26723;57.478;12.066;2024-01-16T12:26:42;-5.40;99.90
40996;DHT22;26723;57.478;12.066;2024-01-16T12:30:05;-5.30;99.90
40996;DHT22;26723;57.478;12.066;2024-01-16T12:33:14;-5.20;99.90
40996;DHT22;26723;57.478;12.066;2024-01-16T12:36:23;-5.30;99.90
40996;DHT22;26723;57.478;12.066;2024-01-16T12:39:32;-5.40;99.90
40996;DHT22;26723;57.478;12.066;2024-01-16T12:42:44;-5.40;99.90
40996;DHT22;26723;57.478;12.066;2024-01-16T12:45:57;-5.40;99.90
40996;DHT22;26723;57.478;12.066;2024-01-16T12:49:05;-5.30;99.90
40996;DHT22;26723;57.478;12.066;2024-01-16T12:52:18;-5.40;99.90
40996;DHT22;26723;57.478;12.066;2024-01-16T12:55:28;-5.30;99.90
40996;DHT22;26723;57.478;12.066;2024-01-16T12:58:38;-5.30;99.90
40996;DHT22;26723;57.478;12.066;2024-01-16T13:01:47;-5.30;99.90
40996;DHT22;26723;57.478;12.066;2024-01-16T13:04:56;-5.20;99.90
40996;DHT22;26723;57.478;12.066;2024-01-16T13:08:07;-5.10;99.90
40996;DHT22;26723;57.478;12.066;2024-01-16T13:11:16;-5.00;99.90
40996;DHT22;26723;57.478;12.066;2024-01-16T13:14:46;-5.10;99.90
40996;DHT22;26723;57.478;12.066;2024-01-16T13:17:54;-5.00;99.90
40996;DHT22;26723;57.478;12.066;2024-01-16T13:21:03;-5.00;99.90
40996;DHT22;26723;57.478;12.066;2024-01-16T13:24:13;-5.00;99.90
40996;DHT22;26723;57.478;12.066;2024-01-16T13:27:21;-5.00;99.90
40996;DHT22;26723;57.478;12.066;2024-01-16T13:30:32;-5.00;99.90
40996;DHT22;26723;57.478;12.066;2024-01-16T13:33:53;-5.00;99.90
40996;DHT22;26723;57.478;12.066;2024-01-16T13:37:04;-5.00;99.90
40996;DHT22;26723;57.478;12.066;2024-01-16T13:40:24;-5.00;99.90
40996;DHT22;26723;57.478;12.066;2024-01-16T13:43:33;-5.00;99.90
40996;DHT22;26723;57.478;12.066;2024-01-16T13:46:43;-5.10;99.90
40996;DHT22;26723;57.478;12.066;2024-01-16T13:50:11;-5.20;99.90
40996;DHT22;26723;57.478;12.066;2024-01-16T13:53:20;-5.30;99.90
40996;DHT22;26723;57.478;12.066;2024-01-16T13:56:30;-5.30;99.90
40996;DHT22;26723;57.478;12.066;2024-01-16T13:59:58;-5.40;99.90
40996;DHT22;26723;57.478;12.066;2024-01-16T14:03:19;-5.40;99.90
40996;DHT22;26723;57.478;12.066;2024-01-16T14:06:30;-5.30;99.90
40996;DHT22;26723;57.478;12.066;2024-01-16T14:09:59;-5.40;99.90
40996;DHT22;26723;57.478;12.066;2024-01-16T14:13:11;-5.30;99.90
40996;DHT22;26723;57.478;12.066;2024-01-16T14:16:20;-5.40;99.90
40996;DHT22;26723;57.478;12.066;2024-01-16T14:19:52;-5.40;99.90
40996;DHT22;26723;57.478;12.066;2024-01-16T14:23:01;-5.40;99.90
40996;DHT22;26723;57.478;12.066;2024-01-16T14:26:10;-5.40;99.90
40996;DHT22;26723;57.478;12.066;2024-01-16T14:29:19;-5.40;99.90
40996;DHT22;26723;57.478;12.066;2024-01-16T14:32:28;-5.40;99.90
40996;DHT22;26723;57.478;12.066;2024-01-16T14:35:38;-5.40;99.90
40996;DHT22;26723;57.478;12.066;2024-01-16T14:38:47;-5.40;99.90
40996;DHT22;26723;57.478;12.066;2024-01-16T14:41:58;-5.30;99.90
40996;DHT22;26723;57.478;12.066;2024-01-16T14:45:08;-5.30;99.90
40996;DHT22;26723;57.478;12.066;2024-01-16T14:48:18;-5.30;99.90
40996;DHT22;26723;57.478;12.066;2024-01-16T14:51:28;-5.30;99.90
40996;DHT22;26723;57.478;12.066;2024-01-16T14:54:37;-5.40;99.90
40996;DHT22;26723;57.478;12.066;2024-01-16T14:57:47;-5.30;99.90
40996;DHT22;26723;57.478;12.066;2024-01-16T15:01:00;-5.30;99.90
40996;DHT22;26723;57.478;12.066;2024-01-16T15:04:08;-5.30;99.90
40996;DHT22;26723;57.478;12.066;2024-01-16T15:07:18;-5.20;99.90
40996;DHT22;26723;57.478;12.066;2024-01-16T15:10:27;-5.10;99.90
40996;DHT22;26723;57.478;12.066;2024-01-16T15:13:35;-5.10;99.90
40996;DHT22;26723;57.478;12.066;2024-01-16T15:16:44;-5.10;99.90
40996;DHT22;26723;57.478;12.066;2024-01-16T15:19:54;-5.10;99.90
40996;DHT22;26723;57.478;12.066;2024-01-16T15:23:05;-5.10;99.90
40996;DHT22;26723;57.478;12.066;2024-01-16T15:26:13;-5.10;99.90
40996;DHT22;26723;57.478;12.066;2024-01-16T15:29:28;-5.00;99.90
40996;DHT22;26723;57.478;12.066;2024-01-16T15:32:37;-5.00;99.90
40996;DHT22;26723;57.478;12.066;2024-01-16T15:35:46;-5.00;99.90
40996;DHT22;26723;57.478;12.066;2024-01-16T15:38:56;-5.00;99.90
40996;DHT22;26723;57.478;12.066;2024-01-16T15:42:05;-4.90;99.90
40996;DHT22;26723;57.478;12.066;2024-01-16T15:45:14;-4.90;99.90
40996;DHT22;26723;57.478;12.066;2024-01-16T15:48:23;-4.90;99.90
40996;DHT22;26723;57.478;12.066;2024-01-16T15:51:40;-4.90;99.90
40996;DHT22;26723;57.478;12.066;2024-01-16T15:54:51;-4.90;99.90
40996;DHT22;26723;57.478;12.066;2024-01-16T15:58:00;-4.90;99.90
40996;DHT22;26723;57.478;12.066;2024-01-16T16:01:09;-4.90;99.90
40996;DHT22;26723;57.478;12.066;2024-01-16T16:04:18;-4.90;99.90
40996;DHT22;26723;57.478;12.066;2024-01-16T16:07:26;-4.90;99.90
40996;DHT22;26723;57.478;12.066;2024-01-16T16:10:36;-4.90;99.90
40996;DHT22;26723;57.478;12.066;2024-01-16T16:13:46;-4.90;99.90
40996;DHT22;26723;57.478;12.066;2024-01-16T16:16:56;-4.80;99.90
40996;DHT22;26723;57.478;12.066;2024-01-16T16:20:10;-4.90;99.90
40996;DHT22;26723;57.478;12.066;2024-01-16T16:23:22;-4.80;99.90
40996;DHT22;26723;57.478;12.066;2024-01-16T16:26:34;-4.80;99.90
40996;DHT22;26723;57.478;12.066;2024-01-16T16:29:44;-4.70;99.90
40996;DHT22;26723;57.478;12.066;2024-01-16T16:32:53;-4.70;99.90
40996;DHT22;26723;57.478;12.066;2024-01-16T16:36:02;-4.70;99.90
40996;DHT22;26723;57.478;12.066;2024-01-16T16:39:11;-4.70;99.90
40996;DHT22;26723;57.478;12.066;2024-01-16T16:42:25;-4.70;99.90
40996;DHT22;26723;57.478;12.066;2024-01-16T16:45:35;-4.70;99.90
40996;DHT22;26723;57.478;12.066;2024-01-16T16:48:44;-4.70;99.90
40996;DHT22;26723;57.478;12.066;2024-01-16T16:51:53;-4.60;99.90
40996;DHT22;26723;57.478;12.066;2024-01-16T16:55:02;-4.60;99.90
40996;DHT22;26723;57.478;12.066;2024-01-16T16:58:13;-4.60;99.90
40996;DHT22;26723;57.478;12.066;2024-01-16T17:01:21;-4.60;99.90
40996;DHT22;26723;57.478;12.066;2024-01-16T17:04:30;-4.50;99.90
40996;DHT22;26723;57.478;12.066;2024-01-16T17:07:39;-4.50;99.90
40996;DHT22;26723;57.478;12.066;2024-01-16T17:10:48;-4.50;99.90
40996;DHT22;26723;57.478;12.066;2024-01-16T17:13:58;-4.40;99.90
40996;DHT22;26723;57.478;12.066;2024-01-16T17:17:07;-4.30;99.90
40996;DHT22;26723;57.478;12.066;2024-01-16T17:20:16;-4.30;99.90
40996;DHT22;26723;57.478;12.066;2024-01-16T17:23:25;-4.20;99.90
40996;DHT22;26723;57.478;12.066;2024-01-16T17:26:34;-4.20;99.90
40996;DHT22;26723;57.478;12.066;2024-01-16T17:29:44;-4.10;99.90
40996;DHT22;26723;57.478;12.066;2024-01-16T17:32:53;-4.00;99.90
40996;DHT22;26723;57.478;12.066;2024-01-16T17:36:02;-4.00;99.90
40996;DHT22;26723;57.478;12.066;2024-01-16T17:39:15;-3.90;99.90
40996;DHT22;26723;57.478;12.066;2024-01-16T17:42:26;-3.80;99.90
40996;DHT22;26723;57.478;12.066;2024-01-16T17:45:36;-3.80;99.90
40996;DHT22;26723;57.478;12.066;2024-01-16T17:48:45;-3.70;99.90
40996;DHT22;26723;57.478;12.066;2024-01-16T17:51:54;-3.60;99.90
40996;DHT22;26723;57.478;12.066;2024-01-16T17:55:04;-3.60;99.90
40996;DHT22;26723;57.478;12.066;2024-01-16T17:58:13;-3.50;99.90
40996;DHT22;26723;57.478;12.066;2024-01-16T18:01:24;-3.50;99.90
40996;DHT22;26723;57.478;12.066;2024-01-16T18:04:33;-3.60;99.90
40996;DHT22;26723;57.478;12.066;2024-01-16T18:07:41;-3.60;99.90
40996;DHT22;26723;57.478;12.066;2024-01-16T18:10:50;-3.60;99.90
40996;DHT22;26723;57.478;12.066;2024-01-16T18:14:00;-3.60;99.90
40996;DHT22;26723;57.478;12.066;2024-01-16T18:17:15;-3.60;99.90
40996;DHT22;26723;57.478;12.066;2024-01-16T18:20:27;-3.60;99.90
40996;DHT22;26723;57.478;12.066;2024-01-16T18:23:38;-3.60;99.90
40996;DHT22;26723;57.478;12.066;2024-01-16T18:26:47;-3.50;99.90
40996;DHT22;26723;57.478;12.066;2024-01-16T18:29:57;-3.50;99.90
40996;DHT22;26723;57.478;12.066;2024-01-16T18:33:07;-3.40;99.90
40996;DHT22;26723;57.478;12.066;2024-01-16T18:36:16;-3.40;99.90
40996;DHT22;26723;57.478;12.066;2024-01-16T18:39:27;-3.30;99.90
40996;DHT22;26723;57.478;12.066;2024-01-16T18:42:37;-3.30;99.90
40996;DHT22;26723;57.478;12.066;2024-01-16T18:45:46;-3.20;99.90
40996;DHT22;26723;57.478;12.066;2024-01-16T18:48:56;-3.20;99.90
40996;DHT22;26723;57.478;12.066;2024-01-16T18:52:06;-3.20;99.90
40996;DHT22;26723;57.478;12.066;2024-01-16T18:55:14;-3.20;99.90
40996;DHT22;26723;57.478;12.066;2024-01-16T18:58:24;-3.10;99.90
40996;DHT22;26723;57.478;12.066;2024-01-16T19:01:32;-3.10;99.90
40996;DHT22;26723;57.478;12.066;2024-01-16T19:04:43;-3.10;99.90
40996;DHT22;26723;57.478;12.066;2024-01-16T19:07:53;-3.10;99.90
40996;DHT22;26723;57.478;12.066;2024-01-16T19:11:02;-3.10;99.90
40996;DHT22;26723;57.478;12.066;2024-01-16T19:14:10;-3.10;99.90
40996;DHT22;26723;57.478;12.066;2024-01-16T19:17:20;-3.10;99.90
40996;DHT22;26723;57.478;12.066;2024-01-16T19:20:30;-3.20;99.90
40996;DHT22;26723;57.478;12.066;2024-01-16T19:23:39;-3.10;99.90
40996;DHT22;26723;57.478;12.066;2024-01-16T19:26:50;-3.10;99.90
40996;DHT22;26723;57.478;12.066;2024-01-16T19:30:03;-3.10;99.90
40996;DHT22;26723;57.478;12.066;2024-01-16T19:33:15;-3.10;99.90
40996;DHT22;26723;57.478;12.066;2024-01-16T19:36:28;-3.00;99.90